Time;durP1;ratioP1;P1;durP2;ratioP2;P2;SDS_P1;SDS_P2;PMS_P1;PMS_P2;Temp;Humidity;BMP_temperature;BMP_pressure;BME280_temperature;BME280_humidity;BME280_pressure;Samples;Min_cycle;Max_cycle;Signal;HPM_P1;HPM_P2
2021/12/05 00:23:37;;;;;;;8.00;2.30;;;;;;;;;;4770705;30;20053;-78
2021/12/05 00:26:06;;;;;;;5.38;1.08;;;;;;;;;;4770581;30;20386;-78
2021/12/05 00:31:24;;;;;;;;;;;;;;;;;;4810158;29;20447;-78
2021/12/05 00:34:12;;;;;;;2.35;0.70;;;;;;;;;;4861836;29;19964;-78
2021/12/05 00:42:20;;;;;;;4.57;0.95;;;;;;;;;;4862596;29;20085;-78
2021/12/05 00:45:29;;;;;;;8.00;0.82;;;;;;;;;;4862822;29;20083;-78
2021/12/05 00:55:45;;;;;;;4.53;1.55;;;;;;;;;;4863053;29;20466;-78
2021/12/05 01:16:54;;;;;;;4.95;1.10;;;;;;;;;;4862119;29;20390;-78
2021/12/05 01:19:22;;;;;;;3.40;0.75;;;;;;;;;;4860808;29;20083;-78
2021/12/05 01:21:49;;;;;;;6.13;1.30;;;;;;;;;;4861183;29;20505;-78
2021/12/05 01:26:56;;;;;;;4.40;1.55;;;;;;;;;;4862397;29;20116;-78
2021/12/05 01:29:44;;;;;;;2.95;0.73;;;;;;;;;;4862278;29;20026;-78
2021/12/05 01:32:52;;;;;;;5.70;0.68;;;;;;;;;;4860602;29;20030;-78
2021/12/05 01:35:13;;;;;;;3.83;0.80;;;;;;;;;;4841043;29;20049;-78
2021/12/05 01:45:58;;;;;;;4.00;0.60;;;;;;;;;;4858534;29;20041;-78
2021/12/05 02:37:14;;;;;;;3.35;0.63;;;;;;;;;;4804096;29;20068;-78
2021/12/05 02:40:18;;;;;;;0.80;0.30;;;;;;;;;;4841474;29;20042;-78
2021/12/05 02:42:50;;;;;;;1.67;0.38;;;;;;;;;;4847141;29;20375;-78
2021/12/05 02:45:17;;;;;;;1.13;0.30;;;;;;;;;;4860328;29;20034;-78
2021/12/05 02:47:49;;;;;;;2.03;0.30;;;;;;;;;;4860919;29;20033;-78
2021/12/05 02:50:15;;;;;;;3.33;1.42;;;;;;;;;;4861025;29;20470;-78
2021/12/05 02:52:42;;;;;;;223.90;65.15;;;;;;;;;;4860343;29;20041;-78
2021/12/05 02:55:12;;;;;;;52.40;21.10;;;;;;;;;;4860884;29;20026;-78
2021/12/05 03:00:12;;;;;;;0.25;0.20;;;;;;;;;;4855119;29;20050;-78
2021/12/05 03:02:42;;;;;;;26.23;11.73;;;;;;;;;;4841979;29;20022;-78
2021/12/05 03:05:12;;;;;;;15.13;6.55;;;;;;;;;;4842421;29;20038;-78
2021/12/05 03:07:41;;;;;;;7.03;2.22;;;;;;;;;;4854819;29;20033;-78
2021/12/05 03:10:08;;;;;;;1.23;0.40;;;;;;;;;;4860580;29;20021;-78
2021/12/05 03:12:36;;;;;;;9.25;7.25;;;;;;;;;;4860528;29;20112;-78
2021/12/05 03:15:04;;;;;;;5.63;1.55;;;;;;;;;;4860019;29;20513;-78
2021/12/05 03:17:31;;;;;;;9.18;5.28;;;;;;;;;;4861171;29;20037;-78
2021/12/05 03:19:57;;;;;;;2.80;1.13;;;;;;;;;;4846025;29;20100;-78
2021/12/05 03:22:23;;;;;;;2.22;1.02;;;;;;;;;;4842186;29;20541;-78
2021/12/05 03:24:49;;;;;;;3.33;1.67;;;;;;;;;;4842233;29;20487;-78
2021/12/05 03:27:15;;;;;;;2.58;0.60;;;;;;;;;;4841308;29;20026;-78
2021/12/05 03:29:41;;;;;;;2.70;1.10;;;;;;;;;;4841799;29;20030;-78
2021/12/05 03:32:07;;;;;;;1.13;0.57;;;;;;;;;;4841964;29;20038;-78
2021/12/05 03:34:33;;;;;;;3.28;0.60;;;;;;;;;;4841963;29;20105;-78
2021/12/05 03:37:00;;;;;;;3.17;0.95;;;;;;;;;;4841661;29;20109;-78
2021/12/05 03:39:27;;;;;;;1.90;0.68;;;;;;;;;;4841971;29;20090;-78
2021/12/05 03:41:53;;;;;;;5.50;0.60;;;;;;;;;;4844723;29;20040;-78
2021/12/05 03:44:20;;;;;;;7.20;0.95;;;;;;;;;;4858747;29;20033;-78
2021/12/05 03:46:48;;;;;;;6.03;0.70;;;;;;;;;;4860240;29;20457;-78
2021/12/05 03:49:14;;;;;;;3.85;0.57;;;;;;;;;;4859705;29;20454;-78
2021/12/05 03:51:42;;;;;;;0.40;0.30;;;;;;;;;;4860035;29;20022;-78
2021/12/05 03:54:09;;;;;;;5.32;0.70;;;;;;;;;;4860096;29;20648;-78
2021/12/05 03:56:36;;;;;;;1.95;0.45;;;;;;;;;;4859891;29;20033;-78
2021/12/05 03:59:03;;;;;;;5.93;0.50;;;;;;;;;;4858409;29;20710;-78
2021/12/05 04:01:30;;;;;;;2.83;0.38;;;;;;;;;;4853624;29;20118;-78
2021/12/05 04:03:56;;;;;;;0.47;0.30;;;;;;;;;;4858774;29;20044;-78
2021/12/05 04:06:22;;;;;;;1.00;0.50;;;;;;;;;;4851558;29;20479;-78
2021/12/05 04:08:52;;;;;;;0.45;0.25;;;;;;;;;;4841538;29;20080;-78
2021/12/05 04:11:23;;;;;;;1.75;0.45;;;;;;;;;;4840052;29;20030;-78
2021/12/05 04:13:52;;;;;;;0.67;0.30;;;;;;;;;;4841314;29;20049;-78
2021/12/05 04:16:18;;;;;;;0.52;0.30;;;;;;;;;;4843899;29;20036;-78
2021/12/05 04:18:45;;;;;;;0.40;0.30;;;;;;;;;;4852301;29;20486;-78
2021/12/05 04:21:12;;;;;;;2.80;0.30;;;;;;;;;;4859517;29;20052;-78
2021/12/05 04:23:38;;;;;;;1.55;0.30;;;;;;;;;;4859922;29;20033;-78
2021/12/05 04:26:04;;;;;;;4.57;0.85;;;;;;;;;;4859270;29;20061;-78
2021/12/05 04:28:31;;;;;;;0.47;0.35;;;;;;;;;;4858626;29;20025;-78
2021/12/05 04:30:57;;;;;;;0.98;0.40;;;;;;;;;;4854958;29;20117;-78
2021/12/05 04:33:24;;;;;;;1.70;1.10;;;;;;;;;;4851997;29;20029;-78
2021/12/05 04:35:50;;;;;;;2.20;1.38;;;;;;;;;;4863316;29;20093;-78
2021/12/05 04:38:17;;;;;;;2.42;1.50;;;;;;;;;;4863060;29;20036;-78
2021/12/05 04:40:45;;;;;;;2.58;1.00;;;;;;;;;;4862531;29;20037;-78
2021/12/05 04:43:11;;;;;;;0.82;0.43;;;;;;;;;;4862997;29;20034;-78
2021/12/05 04:45:37;;;;;;;5.68;2.42;;;;;;;;;;4862812;29;20132;-78
2021/12/05 04:48:05;;;;;;;1.17;0.38;;;;;;;;;;4862707;29;20151;-78
2021/12/05 04:50:31;;;;;;;3.25;0.65;;;;;;;;;;4863199;29;20116;-78
2021/12/05 04:52:57;;;;;;;4.88;0.40;;;;;;;;;;4848379;29;20072;-78
2021/12/05 04:55:23;;;;;;;2.53;1.42;;;;;;;;;;4844011;29;20182;-78
2021/12/05 04:57:49;;;;;;;2.60;0.50;;;;;;;;;;4843471;29;20405;-78
2021/12/05 05:00:24;;;;;;;1.02;0.32;;;;;;;;;;4844022;29;20045;-78
2021/12/05 05:02:50;;;;;;;1.30;0.80;;;;;;;;;;4844521;29;20030;-78
2021/12/05 05:05:17;;;;;;;1.58;0.60;;;;;;;;;;4844003;29;20407;-78
2021/12/05 05:07:43;;;;;;;2.22;0.52;;;;;;;;;;4844699;29;20054;-78
2021/12/05 05:10:17;;;;;;;4.30;0.70;;;;;;;;;;4844293;29;20034;-78
2021/12/05 05:12:43;;;;;;;3.17;0.43;;;;;;;;;;4850742;29;20044;-78
2021/12/05 05:15:11;;;;;;;5.97;0.50;;;;;;;;;;4855417;29;20157;-78
2021/12/05 05:17:39;;;;;;;1.92;0.57;;;;;;;;;;4844155;29;20113;-78
2021/12/05 05:20:14;;;;;;;0.82;0.35;;;;;;;;;;4843817;29;20077;-78
2021/12/05 05:22:48;;;;;;;3.75;0.60;;;;;;;;;;4844143;29;20033;-78
2021/12/05 05:46:26;;;;;;;1.52;0.45;;;;;;;;;;4849973;29;20049;-78
2021/12/05 05:48:58;;;;;;;1.38;0.40;;;;;;;;;;4848523;29;20022;-78
2021/12/05 05:51:24;;;;;;;3.33;0.70;;;;;;;;;;4843574;29;20029;-78
2021/12/05 05:53:50;;;;;;;3.47;0.60;;;;;;;;;;4843210;29;20033;-78
2021/12/05 05:56:21;;;;;;;5.30;0.68;;;;;;;;;;4843349;29;20395;-78
2021/12/05 05:58:58;;;;;;;1.60;0.80;;;;;;;;;;4843174;29;20157;-78
2021/12/05 06:03:59;;;;;;;1.75;0.30;;;;;;;;;;4843608;29;20161;-78
2021/12/05 06:06:26;;;;;;;1.30;0.30;;;;;;;;;;4843063;29;20026;-78
2021/12/05 06:08:52;;;;;;;2.45;0.30;;;;;;;;;;4842992;29;20466;-78
2021/12/05 06:11:19;;;;;;;0.80;0.32;;;;;;;;;;4842993;29;20041;-78
2021/12/05 06:13:45;;;;;;;1.30;0.38;;;;;;;;;;4842907;29;20041;-78
2021/12/05 06:16:13;;;;;;;1.23;0.70;;;;;;;;;;4843222;29;20406;-77
2021/12/05 06:18:39;;;;;;;0.85;0.50;;;;;;;;;;4861270;29;20037;-78
2021/12/05 06:21:06;;;;;;;0.90;0.40;;;;;;;;;;4849620;29;20468;-77
2021/12/05 06:23:32;;;;;;;3.20;1.02;;;;;;;;;;4842520;29;20034;-78
2021/12/05 06:26:00;;;;;;;1.48;0.47;;;;;;;;;;4841490;29;20471;-78
2021/12/05 06:28:57;;;;;;;2.08;0.52;;;;;;;;;;4854317;29;20033;-78
2021/12/05 06:31:23;;;;;;;1.65;0.30;;;;;;;;;;4860024;29;20026;-78
2021/12/05 06:40:01;;;;;;;1.27;0.55;;;;;;;;;;4804001;29;20501;-77
2021/12/05 06:47:43;;;;;;;1.65;0.60;;;;;;;;;;4803692;29;20038;-78
2021/12/05 06:50:09;;;;;;;1.40;0.60;;;;;;;;;;4804108;29;20039;-78
2021/12/05 06:52:35;;;;;;;2.28;0.55;;;;;;;;;;4802873;29;20041;-78
2021/12/05 06:55:01;;;;;;;2.58;0.60;;;;;;;;;;4788355;29;20045;-78
2021/12/05 06:57:27;;;;;;;1.42;0.40;;;;;;;;;;4804059;29;20039;-78
2021/12/05 06:59:53;;;;;;;3.42;0.70;;;;;;;;;;4803834;29;20636;-78
2021/12/05 07:02:20;;;;;;;1.50;0.60;;;;;;;;;;4803920;29;20038;-78
2021/12/05 07:05:12;;;;;;;2.70;0.43;;;;;;;;;;4803378;29;20038;-78
2021/12/05 07:07:38;;;;;;;0.98;0.35;;;;;;;;;;4803201;29;20035;-78
2021/12/05 07:10:06;;;;;;;0.73;0.32;;;;;;;;;;4803634;29;20392;-78
2021/12/05 07:15:37;;;;;;;1.40;0.40;;;;;;;;;;4821640;29;20034;-78
2021/12/05 07:26:14;;;;;;;0.77;0.38;;;;;;;;;;4748746;30;20047;-78
2021/12/05 07:42:24;;;;;;;2.03;1.08;;;;;;;;;;4750067;30;20131;-78
2021/12/05 07:44:54;;;;;;;2.25;0.73;;;;;;;;;;4748658;30;20032;-78
2021/12/05 07:47:27;;;;;;;3.45;1.55;;;;;;;;;;4749714;30;20044;-78
2021/12/05 07:49:54;;;;;;;1.45;0.60;;;;;;;;;;4733530;30;20042;-78
2021/12/05 07:52:24;;;;;;;1.63;0.57;;;;;;;;;;4761584;30;20043;-78
2021/12/05 07:55:11;;;;;;;1.45;0.75;;;;;;;;;;4792013;29;20546;-78
2021/12/05 08:14:36;;;;;;;1.70;0.60;;;;;;;;;;4770685;30;20070;-78
2021/12/05 08:17:04;;;;;;;3.70;0.50;;;;;;;;;;4770708;30;20051;-79
2021/12/05 08:19:30;;;;;;;5.63;0.55;;;;;;;;;;4769936;30;20028;-80
2021/12/05 08:21:57;;;;;;;1.83;0.52;;;;;;;;;;4770609;30;20202;-79
2021/12/05 08:24:24;;;;;;;3.17;0.70;;;;;;;;;;4770728;30;20045;-79
2021/12/05 08:26:51;;;;;;;5.13;1.17;;;;;;;;;;4786848;29;20395;-79
2021/12/05 08:29:23;;;;;;;1.80;0.90;;;;;;;;;;4788345;30;20460;-78
2021/12/05 09:39:46;;;;;;;2.30;0.82;;;;;;;;;;4844320;29;20069;-78
2021/12/05 10:12:59;;;;;;;5.50;0.93;;;;;;;;;;4804535;29;20094;-80
2021/12/05 10:14:54;;;;;;;8.00;1.13;;;;;;;;;;4797342;29;20035;-80
2021/12/05 10:17:53;;;;;;;8.43;2.65;;;;;;;;;;4804246;29;20047;-79
2021/12/05 10:26:05;;;;;;;5.05;1.27;;;;;;;;;;4802736;29;20053;-79
2021/12/05 10:34:26;;;;;;;5.53;1.50;;;;;;;;;;4804015;29;20124;-79
2021/12/05 10:37:06;;;;;;;4.00;1.20;;;;;;;;;;4812304;29;20049;-79
2021/12/05 10:39:32;;;;;;;6.30;1.30;;;;;;;;;;4842883;29;20030;-79
2021/12/05 10:42:12;;;;;;;2.53;0.82;;;;;;;;;;4859798;29;20105;-79
2021/12/05 10:44:45;;;;;;;3.70;1.45;;;;;;;;;;4851896;29;20169;-79
2021/12/05 10:47:11;;;;;;;6.35;1.13;;;;;;;;;;4842489;29;20487;-78
2021/12/05 10:49:37;;;;;;;3.97;1.30;;;;;;;;;;4842551;29;20030;-79
2021/12/05 10:52:04;;;;;;;5.45;1.30;;;;;;;;;;4858180;29;20029;-82
2021/12/05 10:54:30;;;;;;;10.95;1.75;;;;;;;;;;4860635;29;20033;-79
2021/12/05 10:57:01;;;;;;;6.70;1.55;;;;;;;;;;4860815;29;20029;-79
2021/12/05 10:59:39;;;;;;;3.85;1.02;;;;;;;;;;4860514;29;20098;-79
2021/12/05 11:02:11;;;;;;;4.75;1.30;;;;;;;;;;4853913;29;20067;-80
2021/12/05 11:04:37;;;;;;;;;;;;;;;;;;4842621;29;20022;-79
2021/12/05 11:07:08;;;;;;;4.47;1.17;;;;;;;;;;4842412;29;20272;-78
2021/12/05 11:09:36;;;;;;;;;;;;;;;;;;4842189;29;20499;-79
2021/12/05 11:12:10;;;;;;;4.72;1.63;;;;;;;;;;4841613;29;19969;-79
2021/12/05 11:14:39;;;;;;;6.32;1.58;;;;;;;;;;4841930;29;20029;-79
2021/12/05 11:17:09;;;;;;;4.18;1.10;;;;;;;;;;4841958;29;20038;-78
2021/12/05 11:19:35;;;;;;;5.32;1.20;;;;;;;;;;4841812;29;21855;-79
2021/12/05 11:22:07;;;;;;;6.10;1.02;;;;;;;;;;4840975;29;20049;-79
2021/12/05 11:24:38;;;;;;;5.93;1.17;;;;;;;;;;4842059;29;20034;-80
2021/12/05 11:27:13;;;;;;;3.42;1.02;;;;;;;;;;4859831;29;20274;-79
2021/12/05 11:30:03;;;;;;;4.75;1.10;;;;;;;;;;4860464;29;20459;-80
2021/12/05 11:32:40;;;;;;;4.53;1.25;;;;;;;;;;4857450;29;20068;-79
2021/12/05 11:35:14;;;;;;;6.10;1.58;;;;;;;;;;4857796;29;20032;-79
2021/12/05 11:37:52;;;;;;;6.25;1.27;;;;;;;;;;4850552;29;20386;-80
2021/12/05 11:40:18;;;;;;;2.38;0.77;;;;;;;;;;4852801;29;20030;-84
2021/12/05 11:42:55;;;;;;;3.97;0.90;;;;;;;;;;4845631;29;20078;-80
2021/12/05 11:45:21;;;;;;;5.55;0.90;;;;;;;;;;4851434;29;20030;-79
2021/12/05 11:47:47;;;;;;;4.07;0.80;;;;;;;;;;4846020;29;20100;-79
2021/12/05 11:50:13;;;;;;;2.38;0.90;;;;;;;;;;4845805;29;20122;-79
2021/12/05 11:52:40;;;;;;;4.60;1.15;;;;;;;;;;4848107;29;20045;-79
2021/12/05 11:55:06;;;;;;;7.93;1.50;;;;;;;;;;4842497;29;20522;-78
2021/12/05 11:57:36;;;;;;;4.95;1.85;;;;;;;;;;4850858;29;20134;-78
2021/12/05 12:00:17;;;;;;;7.13;1.20;;;;;;;;;;4849632;29;20030;-78
2021/12/05 12:02:45;;;;;;;6.43;1.00;;;;;;;;;;4841316;29;20059;-78
2021/12/05 12:05:14;;;;;;;4.43;1.13;;;;;;;;;;4840148;29;20037;-79
2021/12/05 12:07:46;;;;;;;5.25;1.30;;;;;;;;;;4838763;29;20034;-79
2021/12/05 12:10:28;;;;;;;11.20;1.20;;;;;;;;;;4840152;29;20034;-80
2021/12/05 12:12:56;;;;;;;4.65;1.80;;;;;;;;;;4840679;29;20261;-79
2021/12/05 12:15:24;;;;;;;4.80;1.38;;;;;;;;;;4848958;29;20034;-79
2021/12/05 12:17:51;;;;;;;5.47;1.50;;;;;;;;;;4854556;29;20606;-79
2021/12/05 12:20:21;;;;;;;9.32;1.67;;;;;;;;;;4852101;29;20132;-79
2021/12/05 12:22:48;;;;;;;3.67;1.00;;;;;;;;;;4853582;29;20443;-79
2021/12/05 12:25:16;;;;;;;4.82;1.42;;;;;;;;;;4846109;29;20040;-79
2021/12/05 12:27:43;;;;;;;3.10;0.95;;;;;;;;;;4839902;29;20057;-78
2021/12/05 12:30:10;;;;;;;4.18;1.33;;;;;;;;;;4853185;29;20518;-77
2021/12/05 12:32:44;;;;;;;6.00;1.20;;;;;;;;;;4857920;29;20030;-77
2021/12/05 12:35:17;;;;;;;2.42;0.98;;;;;;;;;;4856624;29;20042;-78
2021/12/05 12:38:09;;;;;;;4.57;1.15;;;;;;;;;;4839797;29;20038;-79
2021/12/05 12:40:37;;;;;;;4.63;1.30;;;;;;;;;;4852262;29;20054;-78
2021/12/05 12:43:04;;;;;;;6.13;1.10;;;;;;;;;;4838129;29;20038;-77
2021/12/05 12:45:35;;;;;;;5.72;1.25;;;;;;;;;;4840249;29;20038;-79
2021/12/05 12:48:03;;;;;;;4.53;1.50;;;;;;;;;;4840948;29;20026;-78
2021/12/05 12:50:34;;;;;;;4.18;1.10;;;;;;;;;;4851500;29;20029;-78
2021/12/05 12:53:00;;;;;;;3.63;1.20;;;;;;;;;;4853982;29;20121;-79
2021/12/05 12:55:28;;;;;;;5.10;1.30;;;;;;;;;;4858399;29;20289;-79
2021/12/05 12:57:54;;;;;;;4.97;1.30;;;;;;;;;;4859866;29;20041;-79
2021/12/05 13:00:23;;;;;;;5.95;1.77;;;;;;;;;;4856923;29;20037;-79
2021/12/05 13:10:53;;;;;;;3.92;1.10;;;;;;;;;;4859625;29;20140;-79
2021/12/05 13:13:25;;;;;;;7.90;1.30;;;;;;;;;;4857028;29;20045;-78
2021/12/05 13:15:53;;;;;;;4.63;1.25;;;;;;;;;;4856802;29;20046;-79
2021/12/05 13:18:28;;;;;;;6.15;1.08;;;;;;;;;;4854817;29;20098;-79
2021/12/05 13:21:00;;;;;;;3.88;0.98;;;;;;;;;;4861530;29;20069;-79
2021/12/05 13:23:28;;;;;;;4.03;0.98;;;;;;;;;;4854205;29;20125;-79
2021/12/05 13:25:56;;;;;;;11.85;1.55;;;;;;;;;;4858416;29;20418;-79
2021/12/05 13:28:42;;;;;;;5.95;1.17;;;;;;;;;;4851209;29;20385;-79
2021/12/05 13:31:27;;;;;;;4.45;1.05;;;;;;;;;;4862403;29;20033;-79
2021/12/05 13:34:12;;;;;;;6.55;1.17;;;;;;;;;;4860753;29;20029;-78
2021/12/05 13:36:38;;;;;;;4.00;1.25;;;;;;;;;;4857409;29;20045;-79
2021/12/05 13:39:24;;;;;;;4.90;0.70;;;;;;;;;;4843858;29;20041;-79
2021/12/05 13:42:02;;;;;;;11.75;1.92;;;;;;;;;;4851143;29;20837;-79
2021/12/05 13:44:47;;;;;;;5.65;0.90;;;;;;;;;;4849683;29;20026;-79
2021/12/05 13:47:18;;;;;;;5.43;1.60;;;;;;;;;;4857082;29;20120;-79
2021/12/05 13:49:47;;;;;;;4.00;1.10;;;;;;;;;;4855149;29;20030;-79
2021/12/05 13:52:29;;;;;;;3.10;1.00;;;;;;;;;;4843083;29;20282;-79
2021/12/05 13:54:55;;;;;;;;;;;;;;;;;;4844248;29;20030;-79
2021/12/05 13:57:21;;;;;;;6.13;1.30;;;;;;;;;;4843713;29;19920;-79
2021/12/05 13:59:47;;;;;;;9.18;2.08;;;;;;;;;;4843502;29;20355;-79
2021/12/05 14:02:14;;;;;;;6.45;1.30;;;;;;;;;;4843759;29;20074;-79
2021/12/05 14:04:40;;;;;;;6.82;1.40;;;;;;;;;;4842821;29;20026;-79
2021/12/05 14:07:07;;;;;;;3.83;1.20;;;;;;;;;;4842659;29;20040;-79
2021/12/05 14:09:39;;;;;;;3.95;1.25;;;;;;;;;;4845218;29;20402;-79
2021/12/05 14:12:11;;;;;;;6.63;1.45;;;;;;;;;;4870000;29;20026;-79
2021/12/05 14:14:45;;;;;;;6.90;1.67;;;;;;;;;;4852649;29;20550;-79
2021/12/05 14:17:13;;;;;;;9.10;1.77;;;;;;;;;;4846438;29;20743;-78
2021/12/05 14:19:41;;;;;;;11.85;1.67;;;;;;;;;;4849275;29;20025;-79
2021/12/05 14:22:08;;;;;;;5.63;1.52;;;;;;;;;;4859268;29;20025;-78
2021/12/05 14:24:36;;;;;;;9.35;1.58;;;;;;;;;;4861964;29;20029;-79
2021/12/05 14:27:06;;;;;;;7.75;2.05;;;;;;;;;;4852437;29;20030;-78
2021/12/05 14:29:33;;;;;;;6.38;1.30;;;;;;;;;;4842897;29;20030;-78
2021/12/05 14:32:10;;;;;;;6.70;1.08;;;;;;;;;;4842827;29;20021;-78
2021/12/05 14:34:37;;;;;;;6.68;1.40;;;;;;;;;;4842073;29;20030;-78
2021/12/05 14:37:08;;;;;;;8.30;1.23;;;;;;;;;;4842551;29;20554;-78
2021/12/05 14:39:55;;;;;;;8.02;1.00;;;;;;;;;;4842854;29;20109;-78
2021/12/05 14:42:23;;;;;;;13.77;1.25;;;;;;;;;;4841689;29;20034;-78
2021/12/05 14:44:54;;;;;;;5.07;1.20;;;;;;;;;;4852719;29;20071;-78
2021/12/05 14:47:25;;;;;;;7.45;2.08;;;;;;;;;;4860190;29;20033;-78
2021/12/05 14:49:57;;;;;;;8.48;1.50;;;;;;;;;;4859437;29;20037;-79
2021/12/05 14:52:25;;;;;;;6.78;2.03;;;;;;;;;;4860234;29;20021;-79
2021/12/05 14:54:52;;;;;;;6.45;1.70;;;;;;;;;;4861364;29;20029;-78
2021/12/05 14:57:20;;;;;;;9.38;1.70;;;;;;;;;;4860846;29;20022;-79
2021/12/05 14:59:47;;;;;;;6.38;1.08;;;;;;;;;;4859897;29;20041;-78
2021/12/05 15:02:14;;;;;;;5.22;1.10;;;;;;;;;;4860005;29;20056;-78
2021/12/05 15:04:42;;;;;;;10.32;2.30;;;;;;;;;;4860912;29;20029;-78
2021/12/05 15:07:08;;;;;;;8.25;1.15;;;;;;;;;;4860711;29;20033;-78
2021/12/05 15:09:42;;;;;;;5.20;1.40;;;;;;;;;;4860651;29;20082;-78
2021/12/05 15:12:16;;;;;;;9.90;1.52;;;;;;;;;;4860606;29;20030;-78
2021/12/05 15:14:43;;;;;;;5.90;1.70;;;;;;;;;;4849244;29;20026;-78
2021/12/05 15:17:19;;;;;;;8.07;1.80;;;;;;;;;;4842103;29;20030;-78
2021/12/05 15:19:51;;;;;;;9.38;1.50;;;;;;;;;;4853654;29;20060;-78
2021/12/05 15:22:18;;;;;;;9.35;1.75;;;;;;;;;;4860591;29;20037;-79
2021/12/05 15:24:50;;;;;;;12.85;1.80;;;;;;;;;;4859518;29;20029;-80
2021/12/05 15:27:16;;;;;;;10.55;1.52;;;;;;;;;;4853377;29;20096;-78
2021/12/05 15:29:47;;;;;;;11.48;1.63;;;;;;;;;;4852589;29;20037;-78
2021/12/05 15:32:17;;;;;;;6.32;1.75;;;;;;;;;;4851526;29;20450;-79
2021/12/05 15:34:46;;;;;;;13.98;1.55;;;;;;;;;;4847944;29;20066;-78
2021/12/05 15:37:13;;;;;;;8.20;1.55;;;;;;;;;;4849131;29;20112;-79
2021/12/05 15:39:43;;;;;;;10.75;1.77;;;;;;;;;;4860439;29;20487;-79
2021/12/05 15:42:22;;;;;;;8.20;2.05;;;;;;;;;;4860532;29;20695;-79
2021/12/05 15:44:49;;;;;;;7.65;1.55;;;;;;;;;;4859840;29;20611;-79
2021/12/05 15:47:19;;;;;;;9.02;2.00;;;;;;;;;;4860345;29;20026;-79
2021/12/05 15:49:51;;;;;;;13.80;2.50;;;;;;;;;;4860394;29;20033;-79
2021/12/05 15:52:18;;;;;;;10.38;1.70;;;;;;;;;;4860443;29;20487;-79
2021/12/05 15:54:44;;;;;;;6.07;1.42;;;;;;;;;;4848658;29;20079;-79
2021/12/05 15:57:19;;;;;;;6.25;1.45;;;;;;;;;;4842168;29;20030;-79
2021/12/05 15:59:47;;;;;;;8.27;2.58;;;;;;;;;;4857465;29;20038;-79
2021/12/05 16:02:17;;;;;;;5.13;1.45;;;;;;;;;;4851852;29;20113;-78
2021/12/05 16:04:43;;;;;;;4.57;1.60;;;;;;;;;;4841654;29;20053;-79
2021/12/05 16:07:10;;;;;;;8.35;1.70;;;;;;;;;;4842017;29;20494;-79
2021/12/05 16:09:37;;;;;;;9.10;1.52;;;;;;;;;;4840256;29;20079;-79
2021/12/05 16:12:08;;;;;;;4.43;1.10;;;;;;;;;;4855181;29;20502;-79
2021/12/05 16:14:36;;;;;;;4.57;1.40;;;;;;;;;;4857426;29;20494;-79
2021/12/05 16:17:12;;;;;;;6.70;1.60;;;;;;;;;;4859035;29;20823;-78
2021/12/05 16:19:38;;;;;;;8.32;2.00;;;;;;;;;;4859383;29;20105;-79
2021/12/05 16:22:04;;;;;;;8.50;2.20;;;;;;;;;;4857973;29;20093;-79
2021/12/05 16:24:30;;;;;;;14.32;5.53;;;;;;;;;;4858571;29;20036;-79
2021/12/05 16:27:04;;;;;;;10.75;3.63;;;;;;;;;;4861406;29;20045;-79
2021/12/05 16:29:30;;;;;;;9.88;3.00;;;;;;;;;;4852777;29;20540;-79
2021/12/05 16:31:57;;;;;;;7.95;1.83;;;;;;;;;;4860339;29;20026;-79
2021/12/05 16:34:26;;;;;;;8.30;2.35;;;;;;;;;;4855738;29;20022;-79
2021/12/05 16:36:58;;;;;;;9.77;2.08;;;;;;;;;;4861748;29;20112;-78
2021/12/05 16:39:24;;;;;;;;;;;;;;;;;;4862194;29;20126;-78
2021/12/05 16:41:53;;;;;;;11.95;1.67;;;;;;;;;;4851656;29;20014;-78
2021/12/05 16:44:21;;;;;;;8.20;1.55;;;;;;;;;;4854790;29;20404;-80
2021/12/05 16:46:49;;;;;;;6.13;2.10;;;;;;;;;;4842897;29;20033;-79
2021/12/05 16:49:18;;;;;;;9.65;2.45;;;;;;;;;;4872717;29;20038;-78
2021/12/05 16:51:53;;;;;;;8.98;1.65;;;;;;;;;;4859636;29;20062;-78
2021/12/05 16:54:23;;;;;;;4.35;1.92;;;;;;;;;;4861000;29;20063;-78
2021/12/05 16:57:01;;;;;;;7.70;1.83;;;;;;;;;;4861786;29;20300;-77
2021/12/05 16:59:27;;;;;;;5.07;1.50;;;;;;;;;;4861454;29;20038;-78
2021/12/05 17:02:11;;;;;;;7.43;1.42;;;;;;;;;;4858204;29;20033;-79
2021/12/05 17:04:49;;;;;;;6.65;1.75;;;;;;;;;;4843135;29;20041;-79
2021/12/05 17:07:18;;;;;;;6.53;2.08;;;;;;;;;;4843165;29;20082;-78
2021/12/05 17:09:44;;;;;;;3.88;1.33;;;;;;;;;;4850949;29;20022;-79
2021/12/05 17:12:31;;;;;;;7.00;2.03;;;;;;;;;;4853488;29;20080;-80
2021/12/05 17:15:12;;;;;;;8.68;2.22;;;;;;;;;;4853056;29;20073;-79
2021/12/05 17:17:39;;;;;;;4.53;1.77;;;;;;;;;;4853487;29;20034;-80
2021/12/05 17:20:20;;;;;;;6.72;1.73;;;;;;;;;;4853357;29;20435;-79
2021/12/05 17:22:53;;;;;;;6.78;2.28;;;;;;;;;;4849898;29;20036;-79
2021/12/05 17:25:19;;;;;;;;;;;;;;;;;;4847901;29;20113;-79
2021/12/05 17:27:47;;;;;;;14.15;2.22;;;;;;;;;;4846142;29;19972;-79
2021/12/05 17:30:13;;;;;;;9.50;1.98;;;;;;;;;;4847510;29;20041;-79
2021/12/05 17:32:39;;;;;;;7.03;1.88;;;;;;;;;;4854600;29;20030;-79
2021/12/05 17:35:09;;;;;;;10.55;2.15;;;;;;;;;;4852134;29;20153;-79
2021/12/05 17:37:35;;;;;;;7.78;1.55;;;;;;;;;;4856310;29;20036;-78
2021/12/05 17:40:04;;;;;;;5.13;1.70;;;;;;;;;;4854927;29;20029;-79
2021/12/05 17:42:32;;;;;;;4.28;1.52;;;;;;;;;;4851645;29;20026;-78
2021/12/05 17:44:59;;;;;;;5.65;1.95;;;;;;;;;;4853575;29;20402;-78
2021/12/05 17:47:26;;;;;;;7.53;1.75;;;;;;;;;;4859621;29;20026;-78
2021/12/05 17:49:53;;;;;;;3.72;1.35;;;;;;;;;;4860028;29;20100;-81
2021/12/05 17:52:21;;;;;;;5.93;1.58;;;;;;;;;;4858263;29;20780;-79
2021/12/05 17:57:41;;;;;;;5.55;1.98;;;;;;;;;;4859545;29;20044;-79
2021/12/05 18:02:46;;;;;;;7.57;1.65;;;;;;;;;;4859890;29;20070;-79
2021/12/05 18:05:20;;;;;;;4.57;1.85;;;;;;;;;;4843008;29;20036;-79
2021/12/05 18:07:47;;;;;;;8.20;1.92;;;;;;;;;;4841461;29;20436;-79
2021/12/05 18:10:14;;;;;;;5.30;1.98;;;;;;;;;;4855566;29;20094;-79
2021/12/05 18:12:42;;;;;;;4.45;1.52;;;;;;;;;;4856586;29;20084;-78
2021/12/05 18:15:13;;;;;;;6.85;1.90;;;;;;;;;;4856464;29;20033;-78
2021/12/05 18:17:40;;;;;;;6.57;1.85;;;;;;;;;;4844804;29;20419;-78
2021/12/05 18:20:07;;;;;;;6.22;1.90;;;;;;;;;;4859331;29;20124;-79
2021/12/05 18:22:35;;;;;;;8.93;2.97;;;;;;;;;;4847793;29;20105;-78
2021/12/05 18:25:01;;;;;;;6.65;2.13;;;;;;;;;;4847851;29;20475;-78
2021/12/05 18:27:27;;;;;;;7.07;2.00;;;;;;;;;;4843526;29;20580;-79
2021/12/05 18:29:53;;;;;;;6.50;2.05;;;;;;;;;;4859938;29;20105;-79
2021/12/05 18:32:19;;;;;;;7.03;2.00;;;;;;;;;;4859223;29;20125;-79
2021/12/05 18:34:46;;;;;;;7.20;2.03;;;;;;;;;;4858864;29;20025;-80
2021/12/05 18:37:12;;;;;;;5.60;1.98;;;;;;;;;;4844333;29;20522;-79
2021/12/05 18:39:41;;;;;;;8.10;2.55;;;;;;;;;;4856322;29;20090;-80
2021/12/05 18:42:09;;;;;;;8.07;1.70;;;;;;;;;;4841240;29;20487;-79
2021/12/05 18:44:39;;;;;;;5.32;1.55;;;;;;;;;;4850262;29;20041;-79
2021/12/05 18:47:07;;;;;;;4.47;1.63;;;;;;;;;;4858482;29;20033;-79
2021/12/05 18:49:33;;;;;;;10.00;1.70;;;;;;;;;;4847950;29;20053;-80
2021/12/05 18:52:00;;;;;;;9.70;1.90;;;;;;;;;;4839691;29;20469;-80
2021/12/05 18:54:26;;;;;;;8.30;2.10;;;;;;;;;;4839280;29;20038;-79
2021/12/05 18:56:52;;;;;;;7.72;2.38;;;;;;;;;;4840002;29;20108;-80
2021/12/05 18:59:19;;;;;;;6.15;1.60;;;;;;;;;;4857659;29;20120;-79
2021/12/05 19:04:46;;;;;;;9.82;1.90;;;;;;;;;;4850104;29;20470;-79
2021/12/05 19:07:18;;;;;;;7.65;1.40;;;;;;;;;;4839170;29;20437;-81
2021/12/05 19:12:16;;;;;;;8.52;2.00;;;;;;;;;;4839661;29;20075;-80
2021/12/05 19:14:46;;;;;;;9.32;1.50;;;;;;;;;;4847832;29;20057;-80
2021/12/05 19:17:14;;;;;;;30.60;17.88;;;;;;;;;;4840090;29;20044;-80
2021/12/05 19:19:41;;;;;;;11.23;2.03;;;;;;;;;;4840001;29;20030;-80
2021/12/05 19:22:12;;;;;;;10.02;2.20;;;;;;;;;;4860184;29;20101;-80
2021/12/05 19:24:39;;;;;;;11.90;2.10;;;;;;;;;;4858616;29;20028;-80
2021/12/05 19:27:05;;;;;;;5.30;1.95;;;;;;;;;;4858125;29;20068;-81
2021/12/05 19:29:33;;;;;;;8.00;1.67;;;;;;;;;;4859488;29;20051;-79
2021/12/05 19:32:00;;;;;;;9.65;1.98;;;;;;;;;;4858724;29;20436;-80
2021/12/05 19:34:26;;;;;;;6.18;1.70;;;;;;;;;;4854213;29;20017;-79
2021/12/05 19:36:53;;;;;;;8.25;1.73;;;;;;;;;;4853660;29;20029;-79
2021/12/05 19:39:23;;;;;;;8.02;1.45;;;;;;;;;;4857631;29;20454;-80
2021/12/05 19:41:49;;;;;;;5.32;2.20;;;;;;;;;;4846116;29;20082;-79
2021/12/05 19:44:16;;;;;;;6.65;2.00;;;;;;;;;;4852691;29;20432;-79
2021/12/05 19:46:42;;;;;;;11.20;2.15;;;;;;;;;;4854597;29;20069;-81
2021/12/05 19:49:09;;;;;;;8.32;1.98;;;;;;;;;;4858945;29;20038;-79
2021/12/05 19:51:35;;;;;;;8.70;1.90;;;;;;;;;;4858911;29;20116;-81
2021/12/05 19:54:04;;;;;;;12.38;1.95;;;;;;;;;;4858921;29;20093;-80
2021/12/05 19:56:30;;;;;;;9.82;2.30;;;;;;;;;;4842983;29;20141;-79
2021/12/05 19:58:56;;;;;;;8.65;2.05;;;;;;;;;;4842921;29;20115;-78
2021/12/05 20:01:22;;;;;;;4.60;1.48;;;;;;;;;;4850710;29;20117;-78
2021/12/05 20:03:49;;;;;;;11.18;2.28;;;;;;;;;;4861738;29;20037;-78
2021/12/05 20:06:16;;;;;;;7.35;1.90;;;;;;;;;;4860490;29;20521;-78
2021/12/05 20:08:43;;;;;;;13.07;2.03;;;;;;;;;;4855352;29;20021;-78
2021/12/05 20:11:09;;;;;;;7.72;1.98;;;;;;;;;;4861712;29;20112;-78
2021/12/05 20:13:36;;;;;;;6.47;1.40;;;;;;;;;;4843696;29;20194;-78
2021/12/05 20:16:02;;;;;;;10.75;2.38;;;;;;;;;;4861405;29;20041;-78
2021/12/05 20:18:30;;;;;;;7.25;2.10;;;;;;;;;;4862200;29;20041;-78
2021/12/05 20:20:57;;;;;;;10.85;2.13;;;;;;;;;;4852124;29;20054;-78
2021/12/05 20:23:23;;;;;;;9.32;2.15;;;;;;;;;;4844930;29;20026;-78